createdAt,value
2018-03-18T00:01:34.252Z,13.48
2018-03-18T00:04:01.876Z,15.20
2018-03-18T00:06:29.329Z,14.05
2018-03-18T00:08:56.768Z,15.77
2018-03-18T00:11:24.207Z,14.07
2018-03-18T00:13:51.713Z,15.38
2018-03-18T00:16:19.141Z,14.35
2018-03-18T00:18:46.696Z,14.80
2018-03-18T00:21:14.133Z,13.73
2018-03-18T00:23:41.580Z,13.18
2018-03-18T00:26:09.069Z,15.95
2018-03-18T00:28:36.723Z,14.98
2018-03-18T00:31:04.191Z,15.20
2018-03-18T00:33:31.750Z,12.15
2018-03-18T00:36:00.020Z,14.18
2018-03-18T00:38:27.470Z,13.70
2018-03-18T00:40:54.964Z,14.32
2018-03-18T00:43:22.408Z,13.77
2018-03-18T00:45:49.860Z,14.40
2018-03-18T00:48:17.403Z,14.82
2018-03-18T00:50:44.860Z,14.52
2018-03-18T00:53:12.296Z,14.98
2018-03-18T00:55:39.715Z,14.57
2018-03-18T00:58:07.160Z,14.82
2018-03-18T01:00:34.692Z,14.98
2018-03-18T01:03:02.340Z,13.13
2018-03-18T01:05:29.907Z,15.68
2018-03-18T01:07:57.547Z,14.43
2018-03-18T01:10:25.124Z,13.45
2018-03-18T01:12:52.577Z,15.10
2018-03-18T01:15:20.005Z,14.87
2018-03-18T01:17:47.437Z,15.43
2018-03-18T01:20:14.871Z,14.32
2018-03-18T01:22:42.412Z,14.10
2018-03-18T01:25:09.869Z,13.55
2018-03-18T01:27:37.314Z,14.93
2018-03-18T01:30:04.775Z,14.57
2018-03-18T01:32:32.415Z,14.23
2018-03-18T01:34:59.997Z,14.30
2018-03-18T01:37:27.628Z,14.95
2018-03-18T01:39:55.220Z,13.80
2018-03-18T01:42:22.645Z,14.57
2018-03-18T01:44:50.080Z,12.85
2018-03-18T01:47:17.578Z,13.25
2018-03-18T01:49:45.036Z,15.43
2018-03-18T01:52:12.500Z,13.52
2018-03-18T01:54:40.151Z,14.73
2018-03-18T01:57:07.592Z,14.43
2018-03-18T01:59:35.066Z,13.85
2018-03-18T02:02:02.500Z,12.88
2018-03-18T02:04:29.935Z,13.70
2018-03-18T02:06:58.151Z,14.30
2018-03-18T02:09:25.653Z,13.40
2018-03-18T02:11:53.247Z,11.80
2018-03-18T02:14:20.835Z,13.00
2018-03-18T02:16:48.292Z,12.40
2018-03-18T02:19:15.739Z,12.37
2018-03-18T02:21:43.173Z,11.32
2018-03-18T02:24:10.664Z,13.05
2018-03-18T02:26:38.091Z,12.50
2018-03-18T02:29:05.520Z,13.85
2018-03-18T02:31:33.028Z,13.50
2018-03-18T02:34:00.484Z,12.35
2018-03-18T02:36:27.933Z,11.02
2018-03-18T02:38:55.376Z,11.88
2018-03-18T02:41:22.852Z,12.95
2018-03-18T02:43:50.625Z,11.57
2018-03-18T02:46:18.385Z,12.20
2018-03-18T02:48:45.822Z,12.05
2018-03-18T02:51:13.255Z,12.37
2018-03-18T02:53:40.693Z,11.52
2018-03-18T02:56:08.201Z,9.90
2018-03-18T02:58:35.859Z,10.02
2018-03-18T03:01:03.333Z,11.07
2018-03-18T03:03:30.796Z,10.48
2018-03-18T03:05:58.331Z,11.02
2018-03-18T03:08:25.790Z,11.23
2018-03-18T03:10:53.245Z,11.15
2018-03-18T03:13:20.701Z,11.68
2018-03-18T03:15:48.142Z,12.50
2018-03-18T03:18:15.575Z,10.27
2018-03-18T03:20:42.999Z,10.98
2018-03-18T03:23:10.529Z,10.18
2018-03-18T03:25:38.000Z,10.60
2018-03-18T03:28:05.748Z,10.25
2018-03-18T03:30:33.510Z,11.05
2018-03-18T03:33:00.949Z,12.05
2018-03-18T03:35:28.376Z,10.75
2018-03-18T03:37:55.879Z,11.73
2018-03-18T03:40:23.320Z,11.68
2018-03-18T03:42:50.741Z,14.13
2018-03-18T03:45:18.252Z,10.68
2018-03-18T03:47:45.888Z,12.13
2018-03-18T03:50:13.368Z,11.00
2018-03-18T03:52:40.832Z,10.40
2018-03-18T03:55:08.313Z,11.05
2018-03-18T03:57:35.749Z,11.65
2018-03-18T04:00:03.204Z,10.95
2018-03-18T04:02:30.656Z,11.20
2018-03-18T04:04:58.120Z,11.95
2018-03-18T04:07:25.571Z,12.40
2018-03-18T04:09:53.048Z,11.18
2018-03-18T04:12:20.484Z,11.48
2018-03-18T04:14:48.036Z,11.32
2018-03-18T04:17:15.461Z,10.38
2018-03-18T04:19:42.905Z,10.27
2018-03-18T04:22:10.331Z,10.23
2018-03-18T04:24:37.772Z,10.43
2018-03-18T04:27:05.305Z,11.63
2018-03-18T04:29:32.772Z,9.75
2018-03-18T04:32:00.227Z,10.00
2018-03-18T04:34:27.686Z,10.52
2018-03-18T04:36:55.112Z,12.30
2018-03-18T04:39:22.592Z,10.98
2018-03-18T04:41:50.012Z,11.38
2018-03-18T04:44:17.467Z,10.13
2018-03-18T04:46:44.872Z,9.85
2018-03-18T04:49:12.422Z,10.95
2018-03-18T04:51:39.878Z,9.02
2018-03-18T04:54:07.513Z,12.30
2018-03-18T04:56:35.032Z,9.82
2018-03-18T04:59:02.470Z,10.13
2018-03-18T05:01:29.916Z,10.65
2018-03-18T05:03:58.250Z,11.05
2018-03-18T05:06:26.451Z,9.90
2018-03-18T05:08:53.917Z,10.30
2018-03-18T05:11:21.372Z,9.30
2018-03-18T05:13:48.812Z,9.30
2018-03-18T05:16:16.281Z,10.10
2018-03-18T05:18:43.720Z,11.45
2018-03-18T05:21:11.135Z,9.43
2018-03-18T05:23:38.577Z,10.60
2018-03-18T05:26:06.008Z,9.32
2018-03-18T05:28:33.567Z,9.93
2018-03-18T05:31:01.000Z,10.40
2018-03-18T05:33:28.432Z,10.48
2018-03-18T05:35:55.862Z,9.98
2018-03-18T05:38:23.296Z,11.15
2018-03-18T05:40:50.849Z,9.18
2018-03-18T05:43:18.301Z,10.32
2018-03-18T05:45:45.751Z,8.98
2018-03-18T05:48:13.180Z,10.05
2018-03-18T05:50:40.676Z,10.57
2018-03-18T05:53:08.214Z,10.77
2018-03-18T05:55:35.893Z,10.60
2018-03-18T05:58:03.324Z,10.20
2018-03-18T06:00:30.756Z,11.00
2018-03-18T06:02:58.263Z,10.93
2018-03-18T06:05:25.701Z,9.10
2018-03-18T06:07:53.128Z,10.43
2018-03-18T06:10:20.559Z,10.27
2018-03-18T06:12:48.079Z,10.55
2018-03-18T06:15:15.512Z,9.55
2018-03-18T06:17:43.002Z,10.32
2018-03-18T06:20:10.458Z,10.38
2018-03-18T06:22:37.915Z,10.65
2018-03-18T06:25:05.356Z,11.82
2018-03-18T06:27:32.784Z,10.55
2018-03-18T06:30:00.283Z,9.05
2018-03-18T06:32:27.908Z,8.90
2018-03-18T06:34:55.411Z,10.57
2018-03-18T06:37:22.839Z,11.43
2018-03-18T06:39:50.415Z,10.05
2018-03-18T06:42:17.835Z,9.07
2018-03-18T06:44:45.273Z,10.20
2018-03-18T06:47:12.781Z,10.02
2018-03-18T06:49:40.245Z,9.90
2018-03-18T06:52:07.855Z,10.95
2018-03-18T06:54:35.468Z,8.80
2018-03-18T06:57:03.220Z,9.05
2018-03-18T06:59:30.872Z,9.85
2018-03-18T07:01:58.444Z,11.05
2018-03-18T07:04:26.196Z,10.38
2018-03-18T07:06:53.624Z,9.32
2018-03-18T07:09:21.120Z,11.23
2018-03-18T07:11:48.740Z,10.40
2018-03-18T07:14:16.340Z,10.48
2018-03-18T07:16:43.969Z,10.10
2018-03-18T07:19:11.560Z,9.60
2018-03-18T07:21:39.188Z,10.35
2018-03-18T07:24:06.639Z,9.25
2018-03-18T07:26:34.228Z,9.57
2018-03-18T07:29:01.965Z,10.70
2018-03-18T07:31:29.480Z,9.57
2018-03-18T07:33:57.119Z,10.57
2018-03-18T07:36:24.675Z,11.45
2018-03-18T07:38:52.104Z,12.18
2018-03-18T07:41:19.622Z,12.80
2018-03-18T07:43:47.078Z,12.02
2018-03-18T07:46:14.465Z,13.70
2018-03-18T07:48:41.957Z,11.85
2018-03-18T07:51:09.588Z,13.93
2018-03-18T07:53:37.177Z,11.77
2018-03-18T07:56:04.610Z,13.07
2018-03-18T07:58:32.059Z,13.25
2018-03-18T08:00:59.507Z,13.52
2018-03-18T08:03:26.931Z,14.52
2018-03-18T08:05:54.396Z,13.50
2018-03-18T08:08:21.865Z,13.32
2018-03-18T08:10:49.367Z,13.70
2018-03-18T08:13:16.827Z,13.15
2018-03-18T08:15:44.472Z,14.07
2018-03-18T08:18:11.900Z,13.75
2018-03-18T08:20:40.221Z,14.48
2018-03-18T08:23:07.807Z,16.00
2018-03-18T08:25:35.268Z,14.10
2018-03-18T08:28:02.697Z,12.98
2018-03-18T08:30:30.168Z,14.65
2018-03-18T08:32:57.720Z,11.48
2018-03-18T08:35:25.469Z,10.57
2018-03-18T08:37:52.889Z,10.85
2018-03-18T08:40:20.316Z,13.55
2018-03-18T08:42:47.755Z,11.40
2018-03-18T08:45:15.994Z,13.30
2018-03-18T08:47:43.659Z,12.32
2018-03-18T08:50:11.132Z,11.05
2018-03-18T08:52:38.548Z,9.02
2018-03-18T08:55:05.988Z,9.32
2018-03-18T08:57:33.404Z,11.38
2018-03-18T09:00:00.864Z,13.75
2018-03-18T09:02:28.336Z,11.32
2018-03-18T09:04:55.796Z,10.15
2018-03-18T09:07:24.091Z,10.48
2018-03-18T09:09:52.318Z,9.43
2018-03-18T09:12:19.756Z,8.40
2018-03-18T09:14:47.226Z,8.30
2018-03-18T09:17:14.636Z,10.05
2018-03-18T09:19:42.076Z,10.13
2018-03-18T09:22:09.589Z,9.32
2018-03-18T09:24:37.016Z,10.32
2018-03-18T09:27:04.440Z,8.95
2018-03-18T09:29:31.956Z,9.55
2018-03-18T09:31:59.408Z,8.82
2018-03-18T09:34:26.839Z,10.55
2018-03-18T09:36:54.268Z,10.48
2018-03-18T09:39:21.717Z,9.77
2018-03-18T09:41:50.023Z,10.05
2018-03-18T09:44:17.604Z,9.65
2018-03-18T09:46:45.069Z,8.82
2018-03-18T09:49:12.495Z,8.90
2018-03-18T09:51:39.997Z,8.57
2018-03-18T09:54:07.413Z,9.63
2018-03-18T09:56:34.891Z,8.63
2018-03-18T09:59:02.343Z,8.15
2018-03-18T10:01:29.771Z,8.32
2018-03-18T10:03:57.187Z,8.43
2018-03-18T10:06:25.642Z,8.30
2018-03-18T10:08:53.101Z,8.20
2018-03-18T10:11:20.549Z,9.30
2018-03-18T10:13:48.011Z,8.30
2018-03-18T10:16:15.468Z,9.05
2018-03-18T10:18:43.208Z,7.75
2018-03-18T10:21:10.624Z,8.45
2018-03-18T10:23:38.133Z,8.77
2018-03-18T10:26:05.559Z,9.23
2018-03-18T10:28:33.045Z,8.55
2018-03-18T10:31:00.478Z,8.90
2018-03-18T10:33:27.978Z,8.27
2018-03-18T10:35:55.417Z,9.40
2018-03-18T10:38:22.833Z,8.25
2018-03-18T10:40:50.263Z,8.88
2018-03-18T10:43:17.683Z,9.05
2018-03-18T10:45:45.167Z,9.02
2018-03-18T10:48:12.709Z,8.80
2018-03-18T10:50:40.139Z,7.43
2018-03-18T10:53:07.551Z,8.23
2018-03-18T10:55:34.987Z,8.30
2018-03-18T10:58:02.461Z,8.13
2018-03-18T11:00:35.609Z,8.07
2018-03-18T11:03:03.198Z,10.43
2018-03-18T11:05:30.749Z,9.43
2018-03-18T11:07:59.269Z,7.75
2018-03-18T11:10:27.672Z,9.40
2018-03-18T11:12:56.345Z,9.05
2018-03-18T11:15:24.536Z,9.32
2018-03-18T11:17:52.008Z,7.93
2018-03-18T11:20:19.473Z,9.80
2018-03-18T11:22:47.100Z,9.77
2018-03-18T11:25:14.688Z,9.20
2018-03-18T11:27:42.140Z,9.90
2018-03-18T11:30:09.590Z,8.35
2018-03-18T11:32:36.988Z,8.63
2018-03-18T11:35:04.414Z,9.80
2018-03-18T11:37:32.014Z,9.55
2018-03-18T11:39:59.761Z,9.63
2018-03-18T11:42:27.186Z,9.07
2018-03-18T11:44:54.613Z,8.52
2018-03-18T11:47:22.052Z,9.85
2018-03-18T11:49:49.488Z,9.95
2018-03-18T11:52:17.003Z,9.07
2018-03-18T11:54:44.460Z,9.95
2018-03-18T11:57:11.915Z,8.40
2018-03-18T11:59:39.329Z,9.40
2018-03-18T12:02:06.753Z,9.13
2018-03-18T12:04:34.200Z,9.35
2018-03-18T12:07:01.754Z,8.27
2018-03-18T12:09:29.175Z,9.25
2018-03-18T12:11:56.661Z,7.43
2018-03-18T12:14:24.108Z,9.00
2018-03-18T12:16:51.772Z,8.75
2018-03-18T12:19:19.337Z,8.52
2018-03-18T12:21:46.868Z,10.05
2018-03-18T12:24:14.422Z,8.85
2018-03-18T12:26:41.939Z,8.98
2018-03-18T12:29:09.477Z,8.45
2018-03-18T12:31:36.908Z,9.00
2018-03-18T12:34:04.332Z,7.93
2018-03-18T12:36:31.756Z,8.00
2018-03-18T12:38:59.298Z,8.45
2018-03-18T12:41:26.924Z,8.15
2018-03-18T12:43:54.517Z,8.68
2018-03-18T12:46:22.280Z,8.05
2018-03-18T12:48:49.701Z,8.82
2018-03-18T12:51:17.192Z,7.62
2018-03-18T12:53:44.624Z,7.95
2018-03-18T12:56:12.104Z,8.73
2018-03-18T12:58:39.520Z,8.30
2018-03-18T13:01:06.948Z,8.73
2018-03-18T13:03:34.375Z,9.35
2018-03-18T13:06:01.950Z,8.80
2018-03-18T13:08:29.340Z,9.18
2018-03-18T13:10:56.775Z,8.82
2018-03-18T13:13:24.200Z,9.00
2018-03-18T13:15:51.671Z,7.03
2018-03-18T13:18:19.094Z,8.23
2018-03-18T13:20:46.587Z,8.35
2018-03-18T13:23:14.128Z,8.50
2018-03-18T13:25:41.874Z,8.48
2018-03-18T13:28:09.293Z,7.40
2018-03-18T13:30:36.801Z,8.50
2018-03-18T13:33:04.234Z,7.45
2018-03-18T13:35:31.714Z,8.75
2018-03-18T13:37:59.136Z,8.77
2018-03-18T13:40:26.559Z,8.85
2018-03-18T13:42:53.985Z,9.40
2018-03-18T13:45:21.427Z,8.70
2018-03-18T13:47:48.898Z,8.65
2018-03-18T13:50:16.450Z,10.25
2018-03-18T13:52:44.203Z,8.38
2018-03-18T13:55:11.623Z,7.65
2018-03-18T13:57:39.057Z,9.68
2018-03-18T14:00:06.478Z,8.73
2018-03-18T14:02:33.945Z,8.75
2018-03-18T14:05:01.364Z,8.07
2018-03-18T14:07:28.936Z,8.05
2018-03-18T14:09:56.356Z,9.00
2018-03-18T14:12:23.864Z,8.57
2018-03-18T14:14:51.337Z,8.15
2018-03-18T14:17:18.774Z,8.75
2018-03-18T14:19:46.249Z,8.77
2018-03-18T14:22:13.858Z,7.95
2018-03-18T14:24:41.451Z,10.15
2018-03-18T14:27:08.867Z,9.00
2018-03-18T14:29:36.287Z,8.60
2018-03-18T14:32:03.724Z,8.98
2018-03-18T14:34:31.281Z,7.55
2018-03-18T14:36:58.708Z,8.43
2018-03-18T14:39:26.124Z,7.80
2018-03-18T14:41:54.569Z,7.65
2018-03-18T14:44:21.985Z,7.47
2018-03-18T14:46:49.404Z,8.48
2018-03-18T14:49:17.605Z,8.93
2018-03-18T14:51:45.028Z,7.57
2018-03-18T14:54:12.763Z,7.12
2018-03-18T14:56:40.189Z,8.63
2018-03-18T14:59:07.633Z,9.50
2018-03-18T15:01:35.091Z,8.35
2018-03-18T15:04:02.588Z,8.75
2018-03-18T15:06:30.018Z,7.75
2018-03-18T15:08:57.440Z,9.85
2018-03-18T15:11:24.960Z,8.88
2018-03-18T15:13:52.420Z,8.93
2018-03-18T15:16:19.832Z,7.62
2018-03-18T15:18:47.645Z,8.85
2018-03-18T15:21:15.418Z,8.05
2018-03-18T15:23:43.051Z,8.95
2018-03-18T15:26:10.621Z,7.82
2018-03-18T15:28:38.048Z,9.18
2018-03-18T15:31:05.537Z,8.20
2018-03-18T15:33:33.172Z,9.00
2018-03-18T15:36:00.745Z,9.13
2018-03-18T15:38:28.186Z,9.00
2018-03-18T15:40:55.608Z,8.20
2018-03-18T15:43:23.032Z,8.50
2018-03-18T15:45:50.580Z,7.53
2018-03-18T15:48:18.352Z,9.27
2018-03-18T15:50:45.800Z,9.65
2018-03-18T15:53:13.258Z,9.60
2018-03-18T15:55:40.974Z,8.70
2018-03-18T15:58:08.339Z,9.40
2018-03-18T16:00:35.824Z,8.25
2018-03-18T16:03:03.289Z,8.48
2018-03-18T16:05:30.731Z,8.15
2018-03-18T16:07:58.204Z,9.02
2018-03-18T16:10:25.756Z,8.50
2018-03-18T16:12:53.178Z,7.80
2018-03-18T16:15:20.608Z,7.55
2018-03-18T16:17:48.125Z,7.90
2018-03-18T16:20:15.552Z,7.95
2018-03-18T16:22:43.044Z,8.20
2018-03-18T16:25:10.463Z,8.27
2018-03-18T16:27:37.888Z,8.77
2018-03-18T16:30:17.004Z,8.02
2018-03-18T16:32:44.424Z,10.38
2018-03-18T16:35:11.863Z,8.77
2018-03-18T16:37:39.420Z,7.60
2018-03-18T16:40:06.856Z,8.40
2018-03-18T16:42:34.360Z,8.48
2018-03-18T16:45:01.791Z,8.60
2018-03-18T16:47:29.311Z,9.05
2018-03-18T16:49:57.524Z,9.38
2018-03-18T16:52:24.971Z,7.85
2018-03-18T16:54:52.392Z,9.05
2018-03-18T16:57:19.819Z,8.25
2018-03-18T16:59:47.470Z,8.20
2018-03-18T17:02:14.891Z,7.87
2018-03-18T17:04:42.327Z,8.90
2018-03-18T17:07:09.853Z,9.35
2018-03-18T17:09:37.279Z,8.55
2018-03-18T17:12:04.757Z,8.55
2018-03-18T17:14:32.208Z,9.20
2018-03-18T17:16:59.712Z,8.55
2018-03-18T17:19:27.432Z,10.93
2018-03-18T17:21:54.936Z,10.40
2018-03-18T17:24:22.647Z,9.00
2018-03-18T17:26:50.088Z,7.25
2018-03-18T17:29:17.501Z,7.80
2018-03-18T17:31:45.848Z,8.40
2018-03-18T17:34:13.300Z,7.62
2018-03-18T17:36:40.908Z,7.97
2018-03-18T17:39:08.542Z,7.62
2018-03-18T17:41:35.964Z,6.95
2018-03-18T17:44:03.404Z,7.82
2018-03-18T17:46:42.656Z,7.15
2018-03-18T17:49:21.885Z,7.90
2018-03-18T17:52:01.217Z,7.05
2018-03-18T17:54:40.664Z,7.85
2018-03-18T17:57:08.092Z,8.10
2018-03-18T17:59:35.563Z,7.80
2018-03-18T18:02:03.028Z,6.95
2018-03-18T18:04:30.452Z,6.47
2018-03-18T18:06:57.893Z,7.05
2018-03-18T18:09:25.395Z,6.82
2018-03-18T18:11:52.816Z,8.40
2018-03-18T18:14:20.339Z,6.22
2018-03-18T18:16:47.776Z,6.82
2018-03-18T18:19:15.197Z,7.15
2018-03-18T18:21:42.617Z,8.75
2018-03-18T18:24:10.933Z,7.68
2018-03-18T18:26:38.431Z,6.40
2018-03-18T18:29:05.967Z,7.72
2018-03-18T18:31:33.386Z,6.35
2018-03-18T18:34:01.598Z,7.53
2018-03-18T18:36:28.994Z,8.65
2018-03-18T18:38:56.424Z,11.25
2018-03-18T18:41:23.848Z,12.70
2018-03-18T18:43:51.281Z,10.30
2018-03-18T18:46:18.776Z,7.75
2018-03-18T18:48:46.202Z,19.62
2018-03-18T18:51:13.630Z,12.02
2018-03-18T18:53:41.051Z,9.45
2018-03-18T18:56:08.520Z,12.40
2018-03-18T18:58:35.964Z,12.90
2018-03-18T19:01:04.442Z,8.95
2018-03-18T19:03:31.873Z,12.27
2018-03-18T19:05:59.291Z,12.10
2018-03-18T19:08:26.716Z,17.67
2018-03-18T19:10:54.259Z,46.45
2018-03-18T19:13:21.684Z,12.35
2018-03-18T19:15:49.116Z,29.90
2018-03-18T19:18:16.629Z,17.12
2018-03-18T19:20:44.084Z,9.55
2018-03-18T19:23:11.504Z,9.60
2018-03-18T19:25:38.931Z,8.40
2018-03-18T19:28:06.655Z,9.00
2018-03-18T19:30:35.024Z,9.20
2018-03-18T19:33:02.596Z,7.05
2018-03-18T19:35:30.052Z,8.13
2018-03-18T19:37:57.475Z,8.20
2018-03-18T19:40:24.966Z,8.05
2018-03-18T19:42:52.420Z,8.38
2018-03-18T19:45:19.841Z,8.30
2018-03-18T19:47:47.324Z,8.25
2018-03-18T19:50:14.742Z,6.70
2018-03-18T19:52:42.246Z,7.78
2018-03-18T19:55:09.704Z,7.82
2018-03-18T19:57:37.156Z,8.88
2018-03-18T20:00:04.571Z,8.60
2018-03-18T20:02:32.014Z,9.20
2018-03-18T20:05:00.437Z,8.32
2018-03-18T20:07:27.868Z,9.05
2018-03-18T20:09:55.365Z,6.95
2018-03-18T20:12:22.811Z,8.63
2018-03-18T20:14:50.231Z,9.48
2018-03-18T20:17:17.725Z,8.45
2018-03-18T20:19:45.183Z,7.55
2018-03-18T20:22:12.616Z,8.63
2018-03-18T20:24:40.039Z,6.93
2018-03-18T20:27:08.388Z,7.60
2018-03-18T20:29:35.836Z,7.07
2018-03-18T20:32:03.268Z,8.55
2018-03-18T20:34:31.044Z,7.80
2018-03-18T20:36:58.497Z,7.60
2018-03-18T20:39:25.995Z,6.03
2018-03-18T20:41:54.348Z,7.15
2018-03-18T20:44:21.855Z,7.10
2018-03-18T20:46:49.297Z,6.30
2018-03-18T20:49:16.804Z,6.20
2018-03-18T20:51:44.268Z,7.97
2018-03-18T20:54:11.718Z,7.00
2018-03-18T20:56:39.119Z,7.68
2018-03-18T20:59:06.539Z,7.43
2018-03-18T21:01:33.996Z,7.82
2018-03-18T21:04:01.542Z,7.30
2018-03-18T21:06:29.030Z,6.93
2018-03-18T21:08:56.389Z,7.28
2018-03-18T21:11:23.917Z,6.25
2018-03-18T21:13:51.356Z,6.80
2018-03-18T21:16:18.779Z,8.32
2018-03-18T21:18:47.208Z,8.13
2018-03-18T21:21:14.672Z,7.45
2018-03-18T21:23:42.096Z,6.72
2018-03-18T21:26:09.518Z,7.37
2018-03-18T21:28:36.939Z,6.90
2018-03-18T21:31:04.472Z,8.07
2018-03-18T21:33:31.901Z,7.37
2018-03-18T21:35:59.404Z,8.90
2018-03-18T21:38:26.846Z,6.65
2018-03-18T21:40:54.265Z,6.70
2018-03-18T21:43:21.768Z,6.30
2018-03-18T21:45:49.232Z,8.77
2018-03-18T21:48:16.857Z,7.65
2018-03-18T21:50:44.351Z,7.18
2018-03-18T21:53:11.899Z,7.07
2018-03-18T21:55:39.336Z,6.40
2018-03-18T21:58:06.747Z,7.20
2018-03-18T22:00:34.167Z,7.65
2018-03-18T22:03:01.927Z,7.62
2018-03-18T22:05:29.483Z,6.78
2018-03-18T22:07:56.908Z,6.95
2018-03-18T22:10:24.400Z,6.05
2018-03-18T22:12:51.823Z,6.53
2018-03-18T22:15:19.248Z,7.90
2018-03-18T22:17:46.668Z,6.22
2018-03-18T22:20:14.142Z,6.37
2018-03-18T22:22:41.565Z,7.62
2018-03-18T22:25:09.045Z,6.93
2018-03-18T22:27:36.463Z,6.05
2018-03-18T22:30:04.051Z,7.05
2018-03-18T22:32:31.507Z,5.85
2018-03-18T22:34:58.964Z,6.40
2018-03-18T22:37:26.381Z,7.07
2018-03-18T22:39:53.804Z,5.50
2018-03-18T22:42:21.324Z,5.87
2018-03-18T22:44:48.740Z,6.87
2018-03-18T22:47:16.173Z,6.10
2018-03-18T22:49:43.664Z,5.85
2018-03-18T22:52:11.087Z,6.40
2018-03-18T22:54:38.612Z,6.28
2018-03-18T22:57:06.072Z,6.05
2018-03-18T22:59:33.488Z,6.20
2018-03-18T23:02:00.908Z,6.72
2018-03-18T23:04:28.337Z,5.65
2018-03-18T23:06:55.772Z,7.28
2018-03-18T23:09:23.212Z,6.62
2018-03-18T23:11:51.402Z,6.37
2018-03-18T23:14:18.829Z,6.35
2018-03-18T23:16:46.240Z,6.37
2018-03-18T23:19:13.665Z,6.55
2018-03-18T23:21:41.245Z,6.18
2018-03-18T23:24:08.666Z,6.10
2018-03-18T23:26:36.083Z,6.80
2018-03-18T23:29:03.516Z,5.80
2018-03-18T23:31:30.944Z,6.32
2018-03-18T23:33:58.428Z,7.18
2018-03-18T23:36:25.984Z,7.55
2018-03-18T23:38:53.395Z,6.30
2018-03-18T23:41:20.824Z,6.20
2018-03-18T23:43:48.248Z,6.47
2018-03-18T23:46:15.808Z,5.93
2018-03-18T23:48:43.225Z,5.95
2018-03-18T23:51:10.721Z,6.85
2018-03-18T23:53:38.145Z,6.18
2018-03-18T23:56:05.567Z,7.30
2018-03-18T23:58:32.996Z,6.20
